createdAt,value
2022-09-10T00:01:24.035Z,1.63
2022-09-10T00:03:50.423Z,1.70
2022-09-10T00:06:18.664Z,1.77
2022-09-10T00:08:46.097Z,1.40
2022-09-10T00:11:14.915Z,1.73
2022-09-10T00:13:43.644Z,1.57
2022-09-10T00:16:13.031Z,2.80
2022-09-10T00:18:40.697Z,1.70
2022-09-10T00:21:13.109Z,1.57
2022-09-10T00:23:40.657Z,1.30
2022-09-10T00:26:23.424Z,1.60
2022-09-10T00:28:51.350Z,1.60
2022-09-10T00:31:19.685Z,1.87
2022-09-10T00:33:46.052Z,1.23
2022-09-10T00:36:19.355Z,1.30
2022-09-10T00:38:46.877Z,1.40
2022-09-10T00:41:14.330Z,1.40
2022-09-10T00:43:54.980Z,1.40
2022-09-10T00:46:24.794Z,1.53
2022-09-10T00:48:52.757Z,1.53
2022-09-10T00:51:19.736Z,1.83
2022-09-10T00:53:46.399Z,1.50
2022-09-10T00:56:14.254Z,1.47
2022-09-10T00:58:42.867Z,1.50
2022-09-10T01:01:09.689Z,1.50
2022-09-10T01:03:36.134Z,1.47
2022-09-10T01:06:03.132Z,1.70
2022-09-10T01:08:29.626Z,1.60
2022-09-10T01:11:08.973Z,1.60
2022-09-10T01:13:58.870Z,1.30
2022-09-10T01:16:48.361Z,1.50
2022-09-10T01:19:36.657Z,1.40
2022-09-10T01:22:45.733Z,1.57
2022-09-10T01:25:39.887Z,1.30
2022-09-10T01:28:25.624Z,1.40
2022-09-10T01:30:58.076Z,1.30
2022-09-10T01:33:45.589Z,1.53
2022-09-10T01:36:22.995Z,1.60
2022-09-10T01:38:51.543Z,1.50
2022-09-10T01:41:22.860Z,1.50
2022-09-10T01:43:49.198Z,1.93
2022-09-10T01:46:44.934Z,1.67
2022-09-10T01:49:29.156Z,1.70
2022-09-10T01:52:08.149Z,1.20
2022-09-10T01:54:48.512Z,1.57
2022-09-10T01:57:44.284Z,1.73
2022-09-10T02:00:13.790Z,1.80
2022-09-10T02:02:47.100Z,1.43
2022-09-10T02:05:17.454Z,1.50
2022-09-10T02:07:46.710Z,2.00
2022-09-10T02:10:13.261Z,1.50
2022-09-10T02:12:40.151Z,1.60
2022-09-10T02:15:08.460Z,1.43
2022-09-10T02:17:37.407Z,1.40
2022-09-10T02:20:10.994Z,1.23
2022-09-10T02:22:42.359Z,1.70
2022-09-10T02:25:09.966Z,1.50
2022-09-10T02:27:38.192Z,1.70
2022-09-10T02:30:07.001Z,1.57
2022-09-10T02:32:33.422Z,1.70
2022-09-10T02:34:59.762Z,1.50
2022-09-10T02:37:26.072Z,0.90
2022-09-10T02:39:52.593Z,1.40
2022-09-10T02:42:19.053Z,1.40
2022-09-10T02:44:46.190Z,1.60
2022-09-10T02:47:12.706Z,1.63
2022-09-10T02:49:39.203Z,2.10
2022-09-10T02:52:06.753Z,2.07
2022-09-10T02:54:33.383Z,1.53
2022-09-10T02:57:00.124Z,1.50
2022-09-10T02:59:26.738Z,1.50
2022-09-10T03:01:54.540Z,1.40
2022-09-10T03:04:20.959Z,1.50
2022-09-10T03:06:49.241Z,1.97
2022-09-10T03:09:16.477Z,1.47
2022-09-10T03:11:42.854Z,1.20
2022-09-10T03:14:10.645Z,1.50
2022-09-10T03:16:37.082Z,1.23
2022-09-10T03:19:03.625Z,1.23
2022-09-10T03:21:29.992Z,1.20
2022-09-10T03:23:57.210Z,1.30
2022-09-10T03:26:27.041Z,1.40
2022-09-10T03:28:53.816Z,1.23
2022-09-10T03:31:21.769Z,1.40
2022-09-10T03:33:49.096Z,1.50
2022-09-10T03:36:15.856Z,0.97
2022-09-10T03:38:42.230Z,1.20
2022-09-10T03:41:08.978Z,0.90
2022-09-10T03:43:35.815Z,1.60
2022-09-10T03:46:02.652Z,1.30
2022-09-10T03:48:29.771Z,1.30
2022-09-10T03:50:56.305Z,1.40
2022-09-10T03:53:23.871Z,1.40
2022-09-10T03:55:52.051Z,1.20
2022-09-10T03:58:18.919Z,1.53
2022-09-10T04:00:46.636Z,1.40
2022-09-10T04:03:14.503Z,1.47
2022-09-10T04:05:43.975Z,1.67
2022-09-10T04:08:12.322Z,1.40
2022-09-10T04:10:44.007Z,1.37
2022-09-10T04:13:11.354Z,1.53
2022-09-10T04:15:38.196Z,1.30
2022-09-10T04:18:05.956Z,1.40
2022-09-10T04:20:33.147Z,1.37
2022-09-10T04:23:00.323Z,1.23
2022-09-10T04:25:27.490Z,1.30
2022-09-10T04:27:54.518Z,1.40
2022-09-10T04:30:20.934Z,1.17
2022-09-10T04:32:47.433Z,1.60
2022-09-10T04:35:17.518Z,1.43
2022-09-10T04:37:43.994Z,1.23
2022-09-10T04:40:10.836Z,1.20
2022-09-10T04:42:38.169Z,1.30
2022-09-10T04:45:05.648Z,1.30
2022-09-10T04:47:32.026Z,1.60
2022-09-10T04:49:58.326Z,1.57
2022-09-10T04:52:24.738Z,1.30
2022-09-10T04:54:51.297Z,1.27
2022-09-10T04:57:17.691Z,1.10
2022-09-10T04:59:44.378Z,1.50
2022-09-10T05:02:10.838Z,1.20
2022-09-10T05:04:37.626Z,1.37
2022-09-10T05:07:04.112Z,1.20
2022-09-10T05:09:31.340Z,1.10
2022-09-10T05:11:58.144Z,1.20
2022-09-10T05:14:25.494Z,1.10
2022-09-10T05:16:52.166Z,1.30
2022-09-10T05:19:18.730Z,1.10
2022-09-10T05:21:45.912Z,1.50
2022-09-10T05:24:12.420Z,1.10
2022-09-10T05:26:39.939Z,1.37
2022-09-10T05:29:06.803Z,1.30
2022-09-10T05:31:35.035Z,1.10
2022-09-10T05:34:01.825Z,1.20
2022-09-10T05:36:28.754Z,1.30
2022-09-10T05:38:55.127Z,0.90
2022-09-10T05:41:21.959Z,1.13
2022-09-10T05:43:48.635Z,1.27
2022-09-10T05:46:15.719Z,1.20
2022-09-10T05:48:42.702Z,1.10
2022-09-10T05:51:09.546Z,1.27
2022-09-10T05:53:35.865Z,0.90
2022-09-10T05:56:02.501Z,0.97
2022-09-10T05:58:29.994Z,1.00
2022-09-10T06:00:57.201Z,1.27
2022-09-10T06:03:24.638Z,1.07
2022-09-10T06:05:51.700Z,1.30
2022-09-10T06:08:21.043Z,1.47
2022-09-10T06:11:00.228Z,1.43
2022-09-10T06:13:27.373Z,1.20
2022-09-10T06:15:53.949Z,1.40
2022-09-10T06:18:20.357Z,1.20
2022-09-10T06:20:50.241Z,1.00
2022-09-10T06:23:17.913Z,1.27
2022-09-10T06:25:44.766Z,1.60
2022-09-10T06:28:12.542Z,1.10
2022-09-10T06:30:39.531Z,1.27
2022-09-10T06:33:06.098Z,1.20
2022-09-10T06:35:33.286Z,1.10
2022-09-10T06:37:59.637Z,1.23
2022-09-10T06:40:27.803Z,1.07
2022-09-10T06:42:54.641Z,1.20
2022-09-10T06:45:20.956Z,1.17
2022-09-10T06:50:33.568Z,1.40
2022-09-10T06:52:59.949Z,1.30
2022-09-10T06:55:26.272Z,1.80
2022-09-10T06:57:52.594Z,1.97
2022-09-10T07:00:19.255Z,1.40
2022-09-10T07:02:45.606Z,1.17
2022-09-10T07:05:11.912Z,1.30
2022-09-10T07:07:38.897Z,1.20
2022-09-10T07:10:07.440Z,1.50
2022-09-10T07:12:33.835Z,1.30
2022-09-10T07:15:00.296Z,1.40
2022-09-10T07:17:31.591Z,1.30
2022-09-10T07:19:58.386Z,1.53
2022-09-10T07:22:24.823Z,1.00
2022-09-10T07:24:51.476Z,1.43
2022-09-10T07:27:18.248Z,1.50
2022-09-10T07:29:44.719Z,1.27
2022-09-10T07:32:13.452Z,1.70
2022-09-10T07:34:40.145Z,1.90
2022-09-10T07:37:07.666Z,1.37
2022-09-10T07:39:34.051Z,1.47
2022-09-10T07:42:00.518Z,1.57
2022-09-10T07:44:27.145Z,1.30
2022-09-10T07:46:53.599Z,1.40
2022-09-10T07:49:20.696Z,1.40
2022-09-10T07:51:47.249Z,1.67
2022-09-10T07:54:15.841Z,1.60
2022-09-10T07:56:42.205Z,1.40
2022-09-10T07:59:08.605Z,1.60
2022-09-10T08:01:34.995Z,1.40
2022-09-10T08:04:01.849Z,1.53
2022-09-10T08:06:28.201Z,1.37
2022-09-10T08:08:55.103Z,1.80
2022-09-10T08:11:21.494Z,1.80
2022-09-10T08:13:49.760Z,1.97
2022-09-10T08:16:21.530Z,1.40
2022-09-10T08:18:48.664Z,1.70
2022-09-10T08:21:16.660Z,1.70
2022-09-10T08:23:48.637Z,1.27
2022-09-10T08:26:15.000Z,1.53
2022-09-10T08:28:43.268Z,1.73
2022-09-10T08:31:12.231Z,1.60
2022-09-10T08:33:39.656Z,1.83
2022-09-10T08:36:08.637Z,1.50
2022-09-10T08:38:37.532Z,1.77
2022-09-10T08:41:19.422Z,1.50
2022-09-10T08:43:56.027Z,1.57
2022-09-10T08:46:29.462Z,1.80
2022-09-10T08:49:14.783Z,2.53
2022-09-10T08:51:46.730Z,2.00
2022-09-10T08:54:22.636Z,1.98
2022-09-10T08:56:49.372Z,2.00
2022-09-10T08:59:22.455Z,1.63
2022-09-10T09:01:59.273Z,1.77
2022-09-10T09:04:37.024Z,1.80
2022-09-10T09:07:12.548Z,2.47
2022-09-10T09:09:39.080Z,2.10
2022-09-10T09:12:05.433Z,1.67
2022-09-10T09:17:35.154Z,1.80
2022-09-10T09:20:15.127Z,1.97
2022-09-10T09:22:55.244Z,2.03
2022-09-10T09:25:34.527Z,2.27
2022-09-10T09:28:03.467Z,2.03
2022-09-10T09:30:49.113Z,1.77
2022-09-10T09:33:21.062Z,1.93
2022-09-10T09:36:01.348Z,2.30
2022-09-10T09:38:34.719Z,2.20
2022-09-10T09:41:23.620Z,2.00
2022-09-10T09:43:58.946Z,2.00
2022-09-10T09:46:25.815Z,2.40
2022-09-10T09:48:57.898Z,2.70
2022-09-10T09:51:26.176Z,2.40
2022-09-10T09:54:34.426Z,2.33
2022-09-10T09:56:50.021Z,2.30
2022-09-10T09:59:28.726Z,2.00
2022-09-10T10:02:05.228Z,2.00
2022-09-10T10:04:33.748Z,2.57
2022-09-10T10:07:02.041Z,2.10
2022-09-10T10:09:31.247Z,2.30
2022-09-10T10:11:59.680Z,2.40
2022-09-10T10:14:32.022Z,2.53
2022-09-10T10:17:00.970Z,2.80
2022-09-10T10:19:34.040Z,2.70
2022-09-10T10:22:18.530Z,2.50
2022-09-10T10:24:47.128Z,3.23
2022-09-10T10:27:21.327Z,2.50
2022-09-10T10:30:07.623Z,3.03
2022-09-10T10:32:55.918Z,2.83
2022-09-10T10:35:44.239Z,4.73
2022-09-10T10:38:29.286Z,2.60
2022-09-10T10:41:09.503Z,3.77
2022-09-10T10:43:52.436Z,2.90
2022-09-10T10:46:28.209Z,2.67
2022-09-10T10:49:25.866Z,2.80
2022-09-10T10:52:08.171Z,2.80
2022-09-10T10:54:44.297Z,2.67
2022-09-10T10:57:25.185Z,2.50
2022-09-10T11:00:08.707Z,2.83
2022-09-10T11:03:04.594Z,2.90
2022-09-10T11:05:38.448Z,2.90
2022-09-10T11:08:50.851Z,2.63
2022-09-10T11:11:21.419Z,2.60
2022-09-10T11:14:00.302Z,3.07
2022-09-10T11:16:40.416Z,2.77
2022-09-10T11:19:23.191Z,2.63
2022-09-10T11:22:16.101Z,2.37
2022-09-10T11:24:50.154Z,2.43
2022-09-10T11:27:23.455Z,2.17
2022-09-10T11:30:10.200Z,2.40
2022-09-10T11:32:48.036Z,2.20
2022-09-10T11:35:28.213Z,2.20
2022-09-10T11:38:18.168Z,2.50
2022-09-10T11:41:29.877Z,2.23
2022-09-10T11:44:45.041Z,2.77
2022-09-10T11:47:22.918Z,2.70
2022-09-10T11:50:06.387Z,3.00
2022-09-10T11:52:35.163Z,2.83
2022-09-10T11:55:03.729Z,3.00
2022-09-10T11:57:33.743Z,2.90
2022-09-10T12:00:09.915Z,3.20
2022-09-10T12:02:39.231Z,3.73
2022-09-10T12:05:37.287Z,3.27
2022-09-10T12:08:28.432Z,3.70
2022-09-10T12:11:18.993Z,4.07
2022-09-10T12:13:47.422Z,3.90
2022-09-10T12:16:35.367Z,3.63
2022-09-10T12:19:07.042Z,3.60
2022-09-10T12:21:41.562Z,3.77
2022-09-10T12:24:32.091Z,3.37
2022-09-10T12:27:01.151Z,3.87
2022-09-10T12:29:43.060Z,4.20
2022-09-10T12:32:13.649Z,4.13
2022-09-10T12:34:40.988Z,4.43
2022-09-10T12:37:22.602Z,5.07
2022-09-10T12:39:49.711Z,4.60
2022-09-10T12:42:33.545Z,4.80
2022-09-10T12:45:00.326Z,4.60
2022-09-10T12:47:32.149Z,5.10
2022-09-10T12:50:03.113Z,5.03
2022-09-10T12:52:51.045Z,5.03
2022-09-10T12:55:59.583Z,5.37
2022-09-10T12:58:32.048Z,5.70
2022-09-10T13:01:31.216Z,6.20
2022-09-10T13:04:00.357Z,6.83
2022-09-10T13:06:39.987Z,6.40
2022-09-10T13:09:18.504Z,6.50
2022-09-10T13:11:51.332Z,6.80
2022-09-10T13:14:23.242Z,6.57
2022-09-10T13:16:49.960Z,6.83
2022-09-10T13:19:17.903Z,7.70
2022-09-10T13:21:44.208Z,7.10
2022-09-10T13:24:35.629Z,7.63
2022-09-10T13:27:31.379Z,7.63
2022-09-10T13:30:31.395Z,7.00
2022-09-10T13:33:04.236Z,6.47
2022-09-10T13:36:05.646Z,6.53
2022-09-10T13:38:50.033Z,7.20
2022-09-10T13:41:25.318Z,7.57
2022-09-10T13:44:20.965Z,7.37
2022-09-10T13:46:53.228Z,7.07
2022-09-10T13:49:55.810Z,8.37
2022-09-10T13:52:29.149Z,8.53
2022-09-10T13:54:57.586Z,8.40
2022-09-10T13:57:39.114Z,8.83
2022-09-10T14:00:27.071Z,8.80
2022-09-10T14:02:59.011Z,9.27
2022-09-10T14:05:33.831Z,9.30
2022-09-10T14:08:14.489Z,9.03
2022-09-10T14:11:01.485Z,9.77
2022-09-10T14:13:39.744Z,9.30
2022-09-10T14:16:10.778Z,10.70
2022-09-10T14:18:44.112Z,9.83
2022-09-10T14:21:15.083Z,10.40
2022-09-10T14:23:49.220Z,10.47
2022-09-10T14:26:24.414Z,10.57
2022-09-10T14:28:58.066Z,10.47
2022-09-10T14:31:29.944Z,10.77
2022-09-10T14:33:58.408Z,10.27
2022-09-10T14:36:27.751Z,9.97
2022-09-10T14:39:15.068Z,10.50
2022-09-10T14:41:41.715Z,10.40
2022-09-10T14:44:23.438Z,10.30
2022-09-10T14:46:52.916Z,11.07
2022-09-10T14:49:28.602Z,10.73
2022-09-10T14:51:59.231Z,10.30
2022-09-10T14:54:26.435Z,9.67
2022-09-10T14:56:54.289Z,9.93
2022-09-10T14:59:26.599Z,9.90
2022-09-10T15:01:53.233Z,9.17
2022-09-10T15:04:28.666Z,8.80
2022-09-10T15:06:59.848Z,9.43
2022-09-10T15:09:27.984Z,8.87
2022-09-10T15:11:58.991Z,9.13
2022-09-10T15:14:26.088Z,8.10
2022-09-10T15:16:52.871Z,8.80
2022-09-10T15:19:20.088Z,8.33
2022-09-10T15:21:47.217Z,8.30
2022-09-10T15:24:16.931Z,7.87
2022-09-10T15:26:43.412Z,8.50
2022-09-10T15:29:10.821Z,8.10
2022-09-10T15:31:37.806Z,7.73
2022-09-10T15:34:06.455Z,7.60
2022-09-10T15:36:35.462Z,7.40
2022-09-10T15:39:01.878Z,6.53
2022-09-10T15:41:28.266Z,7.50
2022-09-10T15:43:54.771Z,7.30
2022-09-10T15:46:24.393Z,7.20
2022-09-10T15:48:51.940Z,7.57
2022-09-10T15:51:23.990Z,7.77
2022-09-10T15:53:52.431Z,7.90
2022-09-10T15:56:20.318Z,7.97
2022-09-10T15:58:55.792Z,7.77
2022-09-10T16:01:23.031Z,7.43
2022-09-10T16:03:55.636Z,7.40
2022-09-10T16:06:24.445Z,7.57
2022-09-10T16:08:52.928Z,7.10
2022-09-10T16:11:20.706Z,6.90
2022-09-10T16:13:47.063Z,7.73
2022-09-10T16:16:18.661Z,7.47
2022-09-10T16:18:45.987Z,7.13
2022-09-10T16:21:15.645Z,6.53
2022-09-10T16:23:43.039Z,12.30
2022-09-10T16:26:14.903Z,10.77
2022-09-10T16:28:58.626Z,8.77
2022-09-10T16:31:32.447Z,7.07
2022-09-10T16:34:02.938Z,5.90
2022-09-10T16:36:31.183Z,6.20
2022-09-10T16:38:58.835Z,5.80
2022-09-10T16:41:25.804Z,5.47
2022-09-10T16:43:53.423Z,4.77
2022-09-10T16:46:20.011Z,5.10
2022-09-10T16:48:46.546Z,5.07
2022-09-10T16:51:15.610Z,4.83
2022-09-10T16:53:44.275Z,5.33
2022-09-10T16:56:13.307Z,5.40
2022-09-10T16:58:41.509Z,5.07
2022-09-10T17:01:09.303Z,5.53
2022-09-10T17:03:40.134Z,5.17
2022-09-10T17:06:12.346Z,5.07
2022-09-10T17:08:39.080Z,4.93
2022-09-10T17:11:07.645Z,5.27
2022-09-10T17:13:35.769Z,5.00
2022-09-10T17:16:24.627Z,4.63
2022-09-10T17:19:06.929Z,4.63
2022-09-10T17:21:34.909Z,4.67
2022-09-10T17:24:03.200Z,4.90
2022-09-10T17:26:31.382Z,5.53
2022-09-10T17:29:00.131Z,4.97
2022-09-10T17:31:27.722Z,5.10
2022-09-10T17:33:55.574Z,5.17
2022-09-10T17:36:22.639Z,4.80
2022-09-10T17:38:49.570Z,5.63
2022-09-10T17:41:16.005Z,6.03
2022-09-10T17:43:43.532Z,6.60
2022-09-10T17:46:12.560Z,6.30
2022-09-10T17:48:39.135Z,6.23
2022-09-10T17:51:06.522Z,6.47
2022-09-10T17:53:33.986Z,6.20
2022-09-10T17:56:08.784Z,8.30
2022-09-10T17:58:35.438Z,7.23
2022-09-10T18:01:05.952Z,7.30
2022-09-10T18:03:32.331Z,7.60
2022-09-10T18:06:10.121Z,7.03
2022-09-10T18:08:38.107Z,8.47
2022-09-10T18:11:07.266Z,8.27
2022-09-10T18:13:34.838Z,9.83
2022-09-10T18:16:12.244Z,9.00
2022-09-10T18:18:39.391Z,9.27
2022-09-10T18:21:20.431Z,9.27
2022-09-10T18:23:55.214Z,9.13
2022-09-10T18:26:24.368Z,8.70
2022-09-10T18:29:02.077Z,10.43
2022-09-10T18:31:34.964Z,10.30
2022-09-10T18:34:01.525Z,10.67
2022-09-10T18:36:28.865Z,9.80
2022-09-10T18:38:55.180Z,11.23
2022-09-10T18:41:25.913Z,11.43
2022-09-10T18:43:55.820Z,10.90
2022-09-10T18:46:23.639Z,11.97
2022-09-10T18:48:51.191Z,12.13
2022-09-10T18:51:20.506Z,11.73
2022-09-10T18:53:48.278Z,12.00
2022-09-10T18:56:17.946Z,11.37
2022-09-10T18:58:59.271Z,12.00
2022-09-10T19:01:27.972Z,11.70
2022-09-10T19:03:54.825Z,12.53
2022-09-10T19:06:26.928Z,13.17
2022-09-10T19:08:55.778Z,13.60
2022-09-10T19:11:24.379Z,13.77
2022-09-10T19:13:53.349Z,13.60
2022-09-10T19:16:21.836Z,13.90
2022-09-10T19:18:54.078Z,13.97
2022-09-10T19:21:21.359Z,13.47
2022-09-10T19:23:49.519Z,13.67
2022-09-10T19:26:17.837Z,13.10
2022-09-10T19:28:45.162Z,13.97
2022-09-10T19:31:14.551Z,13.70
2022-09-10T19:33:41.366Z,13.40
2022-09-10T19:36:14.349Z,13.57
2022-09-10T19:38:41.508Z,13.73
2022-09-10T19:41:18.719Z,13.63
2022-09-10T19:43:47.244Z,13.83
2022-09-10T19:46:15.611Z,14.97
2022-09-10T19:48:43.516Z,15.40
2022-09-10T19:51:20.060Z,16.23
2022-09-10T19:53:47.864Z,17.53
2022-09-10T19:56:20.476Z,17.77
2022-09-10T19:58:52.421Z,17.27
2022-09-10T20:01:22.116Z,16.43
2022-09-10T20:03:50.642Z,16.60
2022-09-10T20:06:19.518Z,16.53
2022-09-10T20:08:47.993Z,16.70
2022-09-10T20:11:26.777Z,15.43
2022-09-10T20:14:01.497Z,15.23
2022-09-10T20:16:28.666Z,15.50
2022-09-10T20:18:55.276Z,15.47
2022-09-10T20:21:25.113Z,14.80
2022-09-10T20:23:55.524Z,14.23
2022-09-10T20:26:27.661Z,14.13
2022-09-10T20:29:00.661Z,14.73
2022-09-10T20:31:29.292Z,13.53
2022-09-10T20:33:58.291Z,14.53
2022-09-10T20:36:26.557Z,14.30
2022-09-10T20:38:54.437Z,14.57
2022-09-10T20:41:22.316Z,13.53
2022-09-10T20:43:51.781Z,15.17
2022-09-10T20:46:19.982Z,15.23
2022-09-10T20:48:49.142Z,15.50
2022-09-10T20:51:17.671Z,14.97
2022-09-10T20:53:44.758Z,15.20
2022-09-10T20:56:14.077Z,15.40
2022-09-10T20:58:41.672Z,14.90
2022-09-10T21:01:16.940Z,14.43
2022-09-10T21:03:43.728Z,14.77
2022-09-10T21:06:11.417Z,15.17
2022-09-10T21:08:39.237Z,15.67
2022-09-10T21:11:10.324Z,15.93
2022-09-10T21:13:37.452Z,17.00
2022-09-10T21:16:13.030Z,16.00
2022-09-10T21:18:41.662Z,16.30
2022-09-10T21:21:11.446Z,16.87
2022-09-10T21:23:45.897Z,16.77
2022-09-10T21:26:14.267Z,16.63
2022-09-10T21:28:41.666Z,16.87
2022-09-10T21:31:09.467Z,16.63
2022-09-10T21:33:36.593Z,16.57
2022-09-10T21:36:09.740Z,16.57
2022-09-10T21:38:37.090Z,16.57
2022-09-10T21:41:06.478Z,16.57
2022-09-10T21:43:34.803Z,16.17
2022-09-10T21:46:02.601Z,15.93
2022-09-10T21:48:32.630Z,16.23
2022-09-10T21:51:00.715Z,16.80
2022-09-10T21:53:27.878Z,16.27
2022-09-10T21:55:55.771Z,15.63
2022-09-10T21:58:22.686Z,16.73
2022-09-10T22:00:49.291Z,17.47
2022-09-10T22:03:19.507Z,16.53
2022-09-10T22:05:46.590Z,17.73
2022-09-10T22:08:13.858Z,17.47
2022-09-10T22:10:41.691Z,17.77
2022-09-10T22:13:08.545Z,16.77
2022-09-10T22:15:39.703Z,17.63
2022-09-10T22:18:07.775Z,18.17
2022-09-10T22:20:36.075Z,18.93
2022-09-10T22:23:04.012Z,18.57
2022-09-10T22:25:31.093Z,17.83
2022-09-10T22:28:00.540Z,17.87
2022-09-10T22:30:27.809Z,18.63
2022-09-10T22:32:58.081Z,18.73
2022-09-10T22:35:26.103Z,17.73
2022-09-10T22:37:57.177Z,18.40
2022-09-10T22:40:24.659Z,18.53
2022-09-10T22:42:52.070Z,18.37
2022-09-10T22:45:20.625Z,18.10
2022-09-10T22:47:48.148Z,16.90
2022-09-10T22:50:15.295Z,17.93
2022-09-10T22:52:43.542Z,17.27
2022-09-10T22:55:10.499Z,17.97
2022-09-10T22:57:38.495Z,17.30
2022-09-10T23:00:05.693Z,16.47
2022-09-10T23:02:32.440Z,17.47
2022-09-10T23:04:59.863Z,17.43
2022-09-10T23:07:26.283Z,17.10
2022-09-10T23:09:52.719Z,17.17
2022-09-10T23:12:22.019Z,17.10
2022-09-10T23:14:48.396Z,17.40
2022-09-10T23:17:18.438Z,16.93
2022-09-10T23:19:47.026Z,16.50
2022-09-10T23:22:13.364Z,17.90
2022-09-10T23:24:39.835Z,17.60
2022-09-10T23:27:06.147Z,18.27
2022-09-10T23:29:32.489Z,16.67
2022-09-10T23:31:59.131Z,17.20
2022-09-10T23:34:26.104Z,20.70
2022-09-10T23:36:53.213Z,18.50
2022-09-10T23:39:21.949Z,17.30
2022-09-10T23:41:50.280Z,17.30
2022-09-10T23:44:17.425Z,17.80
2022-09-10T23:46:44.743Z,18.30
2022-09-10T23:49:11.402Z,17.53
2022-09-10T23:51:38.124Z,17.30
2022-09-10T23:54:04.951Z,17.63
2022-09-10T23:56:31.835Z,17.47
2022-09-10T23:59:01.333Z,17.00
